Terminal Aerodrome Forecast
Issued by NWS

Home | Current Version | Previous Version | Text Only | Print | Product List | Glossary Off
Versions: 1 2 3 4 5 6 7 8 9 10 11 12 13 14

000
FTUS43 KOAX 201159
TAFCDR
TAF
KCDR 201159Z 2012/2112 VRB05KT P6SM SKC
     FM202200 09010KT P6SM SCT120
     FM210600 14008KT P6SM SCT060 OVC100=

USA.gov is the U.S. government's official web portal to all federal, state and local government web resources and services.